sensor_id;sensor_type;location;lat;lon;timestamp;P1;durP1;ratioP1;P2;durP2;ratioP2
33491;SDS011;20010;51.488;7.232;2023-05-10T00:01:08;9.85;;;8.95;;
33491;SDS011;20010;51.488;7.232;2023-05-10T00:03:34;9.75;;;8.85;;
33491;SDS011;20010;51.488;7.232;2023-05-10T00:06:01;10.38;;;9.27;;
33491;SDS011;20010;51.488;7.232;2023-05-10T00:08:28;9.77;;;8.88;;
33491;SDS011;20010;51.488;7.232;2023-05-10T00:10:55;10.55;;;9.63;;
33491;SDS011;20010;51.488;7.232;2023-05-10T00:13:21;10.98;;;9.95;;
33491;SDS011;20010;51.488;7.232;2023-05-10T00:15:48;11.52;;;10.25;;
33491;SDS011;20010;51.488;7.232;2023-05-10T00:18:15;12.00;;;10.82;;
33491;SDS011;20010;51.488;7.232;2023-05-10T00:20:41;11.57;;;10.50;;
33491;SDS011;20010;51.488;7.232;2023-05-10T00:23:08;12.00;;;10.80;;
33491;SDS011;20010;51.488;7.232;2023-05-10T00:25:34;12.18;;;10.20;;
33491;SDS011;20010;51.488;7.232;2023-05-10T00:28:01;11.60;;;10.50;;
33491;SDS011;20010;51.488;7.232;2023-05-10T00:30:28;11.38;;;10.27;;
33491;SDS011;20010;51.488;7.232;2023-05-10T00:32:54;11.93;;;10.73;;
33491;SDS011;20010;51.488;7.232;2023-05-10T00:35:21;13.25;;;11.93;;
33491;SDS011;20010;51.488;7.232;2023-05-10T00:37:47;13.30;;;11.52;;
33491;SDS011;20010;51.488;7.232;2023-05-10T00:40:14;14.13;;;12.48;;
33491;SDS011;20010;51.488;7.232;2023-05-10T00:42:41;13.13;;;11.57;;
33491;SDS011;20010;51.488;7.232;2023-05-10T00:45:08;14.20;;;12.15;;
33491;SDS011;20010;51.488;7.232;2023-05-10T00:47:34;17.20;;;13.55;;
33491;SDS011;20010;51.488;7.232;2023-05-10T00:50:02;16.67;;;14.02;;
33491;SDS011;20010;51.488;7.232;2023-05-10T00:52:28;17.75;;;14.90;;
33491;SDS011;20010;51.488;7.232;2023-05-10T00:54:55;17.20;;;13.82;;
33491;SDS011;20010;51.488;7.232;2023-05-10T00:57:32;18.58;;;14.82;;
33491;SDS011;20010;51.488;7.232;2023-05-10T00:59:59;17.98;;;15.23;;
33491;SDS011;20010;51.488;7.232;2023-05-10T01:02:25;21.58;;;15.07;;
33491;SDS011;20010;51.488;7.232;2023-05-10T01:04:52;17.83;;;15.07;;
33491;SDS011;20010;51.488;7.232;2023-05-10T01:07:19;17.73;;;14.68;;
33491;SDS011;20010;51.488;7.232;2023-05-10T01:09:45;18.30;;;14.77;;
33491;SDS011;20010;51.488;7.232;2023-05-10T01:12:12;21.25;;;15.40;;
33491;SDS011;20010;51.488;7.232;2023-05-10T01:14:39;16.13;;;14.43;;
33491;SDS011;20010;51.488;7.232;2023-05-10T01:17:05;18.73;;;14.45;;
33491;SDS011;20010;51.488;7.232;2023-05-10T01:19:34;17.42;;;14.18;;
33491;SDS011;20010;51.488;7.232;2023-05-10T01:41:18;19.80;;;16.50;;
33491;SDS011;20010;51.488;7.232;2023-05-10T01:44:01;18.33;;;14.65;;
33491;SDS011;20010;51.488;7.232;2023-05-10T01:46:35;16.63;;;14.75;;
33491;SDS011;20010;51.488;7.232;2023-05-10T01:49:16;16.52;;;14.13;;
33491;SDS011;20010;51.488;7.232;2023-05-10T01:51:57;17.50;;;13.93;;
33491;SDS011;20010;51.488;7.232;2023-05-10T01:54:26;16.95;;;14.65;;
33491;SDS011;20010;51.488;7.232;2023-05-10T01:57:02;19.80;;;15.48;;
33491;SDS011;20010;51.488;7.232;2023-05-10T01:59:34;18.20;;;15.32;;
33491;SDS011;20010;51.488;7.232;2023-05-10T02:02:07;22.98;;;16.63;;
33491;SDS011;20010;51.488;7.232;2023-05-10T02:04:35;18.02;;;16.10;;
33491;SDS011;20010;51.488;7.232;2023-05-10T02:07:04;20.03;;;16.17;;
33491;SDS011;20010;51.488;7.232;2023-05-10T02:09:32;22.40;;;17.13;;
33491;SDS011;20010;51.488;7.232;2023-05-10T02:12:00;19.10;;;16.98;;
33491;SDS011;20010;51.488;7.232;2023-05-10T02:14:28;24.48;;;19.33;;
33491;SDS011;20010;51.488;7.232;2023-05-10T02:16:58;22.58;;;18.58;;
33491;SDS011;20010;51.488;7.232;2023-05-10T02:19:26;21.50;;;18.02;;
33491;SDS011;20010;51.488;7.232;2023-05-10T02:21:54;24.90;;;18.75;;
33491;SDS011;20010;51.488;7.232;2023-05-10T02:24:21;19.63;;;16.75;;
33491;SDS011;20010;51.488;7.232;2023-05-10T02:26:49;27.75;;;18.35;;
33491;SDS011;20010;51.488;7.232;2023-05-10T02:29:16;18.75;;;16.52;;
33491;SDS011;20010;51.488;7.232;2023-05-10T02:31:43;21.80;;;17.30;;
33491;SDS011;20010;51.488;7.232;2023-05-10T02:34:10;24.92;;;18.77;;
33491;SDS011;20010;51.488;7.232;2023-05-10T02:36:37;21.75;;;18.42;;
33491;SDS011;20010;51.488;7.232;2023-05-10T02:39:04;22.40;;;19.52;;
33491;SDS011;20010;51.488;7.232;2023-05-10T02:41:35;23.60;;;19.20;;
33491;SDS011;20010;51.488;7.232;2023-05-10T02:44:03;23.45;;;18.48;;
33491;SDS011;20010;51.488;7.232;2023-05-10T02:46:33;22.63;;;18.15;;
33491;SDS011;20010;51.488;7.232;2023-05-10T02:49:01;23.10;;;17.70;;
33491;SDS011;20010;51.488;7.232;2023-05-10T02:51:28;22.65;;;18.67;;
33491;SDS011;20010;51.488;7.232;2023-05-10T02:53:58;22.63;;;17.23;;
33491;SDS011;20010;51.488;7.232;2023-05-10T02:56:34;23.85;;;16.73;;
33491;SDS011;20010;51.488;7.232;2023-05-10T02:59:02;20.00;;;16.55;;
33491;SDS011;20010;51.488;7.232;2023-05-10T03:01:29;24.80;;;17.95;;
33491;SDS011;20010;51.488;7.232;2023-05-10T03:03:55;22.17;;;16.30;;
33491;SDS011;20010;51.488;7.232;2023-05-10T03:06:22;25.40;;;16.75;;
33491;SDS011;20010;51.488;7.232;2023-05-10T03:08:48;24.08;;;17.63;;
33491;SDS011;20010;51.488;7.232;2023-05-10T03:17:06;24.27;;;17.10;;
33491;SDS011;20010;51.488;7.232;2023-05-10T03:19:40;25.98;;;17.55;;
33491;SDS011;20010;51.488;7.232;2023-05-10T03:22:17;26.55;;;17.80;;
33491;SDS011;20010;51.488;7.232;2023-05-10T03:24:50;24.30;;;17.80;;
33491;SDS011;20010;51.488;7.232;2023-05-10T03:27:21;22.33;;;17.33;;
33491;SDS011;20010;51.488;7.232;2023-05-10T03:29:48;21.88;;;16.15;;
33491;SDS011;20010;51.488;7.232;2023-05-10T03:32:17;22.30;;;16.67;;
33491;SDS011;20010;51.488;7.232;2023-05-10T03:34:43;21.52;;;16.30;;
33491;SDS011;20010;51.488;7.232;2023-05-10T03:37:10;20.38;;;15.25;;
33491;SDS011;20010;51.488;7.232;2023-05-10T03:39:37;18.38;;;14.05;;
33491;SDS011;20010;51.488;7.232;2023-05-10T03:42:03;17.40;;;12.65;;
33491;SDS011;20010;51.488;7.232;2023-05-10T03:44:30;18.40;;;13.77;;
33491;SDS011;20010;51.488;7.232;2023-05-10T03:46:59;21.00;;;15.45;;
33491;SDS011;20010;51.488;7.232;2023-05-10T03:49:26;20.52;;;14.93;;
33491;SDS011;20010;51.488;7.232;2023-05-10T03:51:52;19.70;;;14.27;;
33491;SDS011;20010;51.488;7.232;2023-05-10T03:54:19;18.98;;;15.52;;
33491;SDS011;20010;51.488;7.232;2023-05-10T03:56:46;20.52;;;14.80;;
33491;SDS011;20010;51.488;7.232;2023-05-10T03:59:14;19.08;;;14.05;;
33491;SDS011;20010;51.488;7.232;2023-05-10T04:01:41;18.17;;;14.70;;
33491;SDS011;20010;51.488;7.232;2023-05-10T04:04:07;20.30;;;15.55;;
33491;SDS011;20010;51.488;7.232;2023-05-10T04:06:34;23.95;;;17.35;;
33491;SDS011;20010;51.488;7.232;2023-05-10T04:09:01;27.58;;;19.58;;
33491;SDS011;20010;51.488;7.232;2023-05-10T04:11:30;25.77;;;20.48;;
33491;SDS011;20010;51.488;7.232;2023-05-10T04:13:56;27.10;;;20.85;;
33491;SDS011;20010;51.488;7.232;2023-05-10T04:16:23;29.33;;;21.23;;
33491;SDS011;20010;51.488;7.232;2023-05-10T04:18:50;31.25;;;22.33;;
33491;SDS011;20010;51.488;7.232;2023-05-10T04:21:16;29.20;;;22.20;;
33491;SDS011;20010;51.488;7.232;2023-05-10T04:23:43;28.30;;;21.52;;
33491;SDS011;20010;51.488;7.232;2023-05-10T04:26:10;30.80;;;23.60;;
33491;SDS011;20010;51.488;7.232;2023-05-10T04:28:36;33.72;;;26.35;;
33491;SDS011;20010;51.488;7.232;2023-05-10T04:31:03;31.33;;;23.80;;
33491;SDS011;20010;51.488;7.232;2023-05-10T04:33:31;35.35;;;24.45;;
33491;SDS011;20010;51.488;7.232;2023-05-10T04:35:58;36.83;;;25.10;;
33491;SDS011;20010;51.488;7.232;2023-05-10T04:38:24;33.75;;;23.95;;
33491;SDS011;20010;51.488;7.232;2023-05-10T04:40:51;36.08;;;25.05;;
33491;SDS011;20010;51.488;7.232;2023-05-10T04:43:17;36.58;;;24.73;;
33491;SDS011;20010;51.488;7.232;2023-05-10T04:45:44;42.78;;;27.33;;
33491;SDS011;20010;51.488;7.232;2023-05-10T04:48:10;43.38;;;28.77;;
33491;SDS011;20010;51.488;7.232;2023-05-10T04:50:37;40.33;;;26.42;;
33491;SDS011;20010;51.488;7.232;2023-05-10T04:53:04;42.88;;;27.45;;
33491;SDS011;20010;51.488;7.232;2023-05-10T04:55:30;42.47;;;28.73;;
33491;SDS011;20010;51.488;7.232;2023-05-10T04:57:57;41.95;;;28.25;;
33491;SDS011;20010;51.488;7.232;2023-05-10T05:00:25;45.40;;;28.98;;
33491;SDS011;20010;51.488;7.232;2023-05-10T05:02:51;41.83;;;27.10;;
33491;SDS011;20010;51.488;7.232;2023-05-10T05:07:48;51.10;;;30.80;;
33491;SDS011;20010;51.488;7.232;2023-05-10T05:10:15;46.30;;;31.05;;
33491;SDS011;20010;51.488;7.232;2023-05-10T05:12:42;51.38;;;32.60;;
33491;SDS011;20010;51.488;7.232;2023-05-10T05:15:09;52.25;;;31.83;;
33491;SDS011;20010;51.488;7.232;2023-05-10T05:17:36;47.65;;;31.35;;
33491;SDS011;20010;51.488;7.232;2023-05-10T05:20:03;50.15;;;34.25;;
33491;SDS011;20010;51.488;7.232;2023-05-10T05:22:30;50.78;;;32.78;;
33491;SDS011;20010;51.488;7.232;2023-05-10T05:24:57;51.28;;;32.13;;
33491;SDS011;20010;51.488;7.232;2023-05-10T05:27:24;51.63;;;32.72;;
33491;SDS011;20010;51.488;7.232;2023-05-10T05:29:52;49.88;;;31.88;;
33491;SDS011;20010;51.488;7.232;2023-05-10T05:32:20;54.25;;;33.72;;
33491;SDS011;20010;51.488;7.232;2023-05-10T05:34:47;53.97;;;33.97;;
33491;SDS011;20010;51.488;7.232;2023-05-10T05:37:14;54.28;;;35.10;;
33491;SDS011;20010;51.488;7.232;2023-05-10T05:39:44;50.33;;;33.33;;
33491;SDS011;20010;51.488;7.232;2023-05-10T05:42:11;57.20;;;35.00;;
33491;SDS011;20010;51.488;7.232;2023-05-10T05:44:39;55.55;;;34.50;;
33491;SDS011;20010;51.488;7.232;2023-05-10T05:47:06;55.33;;;35.97;;
33491;SDS011;20010;51.488;7.232;2023-05-10T05:49:32;56.22;;;35.13;;
33491;SDS011;20010;51.488;7.232;2023-05-10T05:51:59;51.40;;;34.03;;
33491;SDS011;20010;51.488;7.232;2023-05-10T05:54:29;54.13;;;35.13;;
33491;SDS011;20010;51.488;7.232;2023-05-10T05:56:57;51.97;;;34.97;;
33491;SDS011;20010;51.488;7.232;2023-05-10T05:59:26;53.55;;;35.05;;
33491;SDS011;20010;51.488;7.232;2023-05-10T06:01:53;51.70;;;35.20;;
33491;SDS011;20010;51.488;7.232;2023-05-10T06:04:20;53.35;;;34.53;;
33491;SDS011;20010;51.488;7.232;2023-05-10T06:06:47;51.58;;;34.85;;
33491;SDS011;20010;51.488;7.232;2023-05-10T06:09:13;55.58;;;36.58;;
33491;SDS011;20010;51.488;7.232;2023-05-10T06:11:40;53.53;;;35.53;;
33491;SDS011;20010;51.488;7.232;2023-05-10T06:14:06;54.08;;;35.22;;
33491;SDS011;20010;51.488;7.232;2023-05-10T06:16:34;51.72;;;34.53;;
33491;SDS011;20010;51.488;7.232;2023-05-10T06:19:01;49.38;;;34.67;;
33491;SDS011;20010;51.488;7.232;2023-05-10T06:21:28;51.10;;;34.47;;
33491;SDS011;20010;51.488;7.232;2023-05-10T06:23:55;51.03;;;33.95;;
33491;SDS011;20010;51.488;7.232;2023-05-10T06:26:21;51.08;;;35.15;;
33491;SDS011;20010;51.488;7.232;2023-05-10T06:28:48;51.55;;;35.10;;
33491;SDS011;20010;51.488;7.232;2023-05-10T06:31:15;50.83;;;34.00;;
33491;SDS011;20010;51.488;7.232;2023-05-10T06:33:42;51.78;;;34.28;;
33491;SDS011;20010;51.488;7.232;2023-05-10T06:36:08;49.80;;;32.65;;
33491;SDS011;20010;51.488;7.232;2023-05-10T06:38:35;40.47;;;29.20;;
33491;SDS011;20010;51.488;7.232;2023-05-10T06:41:02;47.67;;;32.00;;
33491;SDS011;20010;51.488;7.232;2023-05-10T06:43:28;40.97;;;30.63;;
33491;SDS011;20010;51.488;7.232;2023-05-10T06:45:55;41.03;;;31.20;;
33491;SDS011;20010;51.488;7.232;2023-05-10T06:48:22;43.13;;;30.63;;
33491;SDS011;20010;51.488;7.232;2023-05-10T06:50:48;40.65;;;29.25;;
33491;SDS011;20010;51.488;7.232;2023-05-10T06:53:15;41.42;;;30.20;;
33491;SDS011;20010;51.488;7.232;2023-05-10T06:55:41;42.85;;;30.25;;
33491;SDS011;20010;51.488;7.232;2023-05-10T06:58:08;38.97;;;29.95;;
33491;SDS011;20010;51.488;7.232;2023-05-10T07:00:35;36.72;;;28.02;;
33491;SDS011;20010;51.488;7.232;2023-05-10T07:03:05;39.33;;;29.17;;
33491;SDS011;20010;51.488;7.232;2023-05-10T07:05:32;39.35;;;27.15;;
33491;SDS011;20010;51.488;7.232;2023-05-10T07:07:59;35.28;;;27.33;;
33491;SDS011;20010;51.488;7.232;2023-05-10T07:10:26;38.30;;;27.92;;
33491;SDS011;20010;51.488;7.232;2023-05-10T07:12:52;38.45;;;27.77;;
33491;SDS011;20010;51.488;7.232;2023-05-10T07:15:19;33.92;;;25.15;;
33491;SDS011;20010;51.488;7.232;2023-05-10T07:17:46;31.88;;;24.77;;
33491;SDS011;20010;51.488;7.232;2023-05-10T07:20:12;35.25;;;25.80;;
33491;SDS011;20010;51.488;7.232;2023-05-10T07:22:39;33.88;;;24.95;;
33491;SDS011;20010;51.488;7.232;2023-05-10T07:25:06;40.47;;;27.17;;
33491;SDS011;20010;51.488;7.232;2023-05-10T07:27:33;42.03;;;27.67;;
33491;SDS011;20010;51.488;7.232;2023-05-10T07:29:59;36.42;;;27.92;;
33491;SDS011;20010;51.488;7.232;2023-05-10T07:32:26;37.15;;;26.02;;
33491;SDS011;20010;51.488;7.232;2023-05-10T07:34:53;35.85;;;26.33;;
33491;SDS011;20010;51.488;7.232;2023-05-10T07:37:20;38.83;;;27.42;;
33491;SDS011;20010;51.488;7.232;2023-05-10T07:39:46;35.97;;;27.95;;
33491;SDS011;20010;51.488;7.232;2023-05-10T07:42:13;35.92;;;26.95;;
33491;SDS011;20010;51.488;7.232;2023-05-10T07:44:40;37.30;;;26.70;;
33491;SDS011;20010;51.488;7.232;2023-05-10T07:47:06;39.67;;;26.92;;
33491;SDS011;20010;51.488;7.232;2023-05-10T07:49:33;37.05;;;27.52;;
33491;SDS011;20010;51.488;7.232;2023-05-10T07:51:59;35.65;;;26.48;;
33491;SDS011;20010;51.488;7.232;2023-05-10T07:54:26;35.60;;;25.75;;
33491;SDS011;20010;51.488;7.232;2023-05-10T07:56:52;31.05;;;25.00;;
33491;SDS011;20010;51.488;7.232;2023-05-10T07:59:19;38.75;;;27.63;;
33491;SDS011;20010;51.488;7.232;2023-05-10T08:01:46;37.03;;;26.25;;
33491;SDS011;20010;51.488;7.232;2023-05-10T08:04:12;35.45;;;24.05;;
33491;SDS011;20010;51.488;7.232;2023-05-10T08:06:39;34.28;;;25.55;;
33491;SDS011;20010;51.488;7.232;2023-05-10T08:09:06;35.95;;;25.05;;
33491;SDS011;20010;51.488;7.232;2023-05-10T08:11:33;37.47;;;26.00;;
33491;SDS011;20010;51.488;7.232;2023-05-10T08:14:00;34.97;;;25.83;;
33491;SDS011;20010;51.488;7.232;2023-05-10T08:16:27;34.25;;;25.38;;
33491;SDS011;20010;51.488;7.232;2023-05-10T08:18:53;38.95;;;28.48;;
33491;SDS011;20010;51.488;7.232;2023-05-10T08:21:21;42.35;;;29.77;;
33491;SDS011;20010;51.488;7.232;2023-05-10T08:23:48;47.05;;;29.15;;
33491;SDS011;20010;51.488;7.232;2023-05-10T08:26:15;37.58;;;27.83;;
33491;SDS011;20010;51.488;7.232;2023-05-10T08:28:41;40.30;;;28.23;;
33491;SDS011;20010;51.488;7.232;2023-05-10T08:31:08;37.97;;;28.42;;
33491;SDS011;20010;51.488;7.232;2023-05-10T08:33:35;40.65;;;28.83;;
33491;SDS011;20010;51.488;7.232;2023-05-10T08:36:01;40.25;;;29.73;;
33491;SDS011;20010;51.488;7.232;2023-05-10T08:38:28;38.08;;;27.95;;
33491;SDS011;20010;51.488;7.232;2023-05-10T08:40:54;41.47;;;29.23;;
33491;SDS011;20010;51.488;7.232;2023-05-10T08:43:29;41.67;;;29.85;;
33491;SDS011;20010;51.488;7.232;2023-05-10T08:45:56;36.70;;;29.38;;
33491;SDS011;20010;51.488;7.232;2023-05-10T08:48:26;39.78;;;27.02;;
33491;SDS011;20010;51.488;7.232;2023-05-10T08:50:55;32.70;;;25.67;;
33491;SDS011;20010;51.488;7.232;2023-05-10T08:53:24;39.63;;;27.90;;
33491;SDS011;20010;51.488;7.232;2023-05-10T08:55:52;32.92;;;25.40;;
33491;SDS011;20010;51.488;7.232;2023-05-10T08:58:19;30.15;;;24.80;;
33491;SDS011;20010;51.488;7.232;2023-05-10T09:00:46;34.20;;;24.85;;
33491;SDS011;20010;51.488;7.232;2023-05-10T09:03:15;30.90;;;22.90;;
33491;SDS011;20010;51.488;7.232;2023-05-10T09:05:41;29.52;;;21.75;;
33491;SDS011;20010;51.488;7.232;2023-05-10T09:08:08;25.80;;;18.25;;
33491;SDS011;20010;51.488;7.232;2023-05-10T09:10:35;21.35;;;17.80;;
33491;SDS011;20010;51.488;7.232;2023-05-10T09:13:01;21.10;;;17.77;;
33491;SDS011;20010;51.488;7.232;2023-05-10T09:15:28;20.95;;;17.00;;
33491;SDS011;20010;51.488;7.232;2023-05-10T09:17:55;21.95;;;18.55;;
33491;SDS011;20010;51.488;7.232;2023-05-10T09:20:22;23.45;;;18.42;;
33491;SDS011;20010;51.488;7.232;2023-05-10T09:22:48;23.80;;;21.02;;
33491;SDS011;20010;51.488;7.232;2023-05-10T09:25:16;27.50;;;21.67;;
33491;SDS011;20010;51.488;7.232;2023-05-10T09:27:46;24.70;;;20.05;;
33491;SDS011;20010;51.488;7.232;2023-05-10T09:30:17;28.60;;;21.20;;
33491;SDS011;20010;51.488;7.232;2023-05-10T09:32:50;24.38;;;18.70;;
33491;SDS011;20010;51.488;7.232;2023-05-10T09:35:17;25.27;;;20.23;;
33491;SDS011;20010;51.488;7.232;2023-05-10T09:37:46;23.67;;;19.42;;
33491;SDS011;20010;51.488;7.232;2023-05-10T09:40:15;21.65;;;18.40;;
33491;SDS011;20010;51.488;7.232;2023-05-10T09:42:50;23.80;;;18.85;;
33491;SDS011;20010;51.488;7.232;2023-05-10T09:45:18;22.40;;;17.65;;
33491;SDS011;20010;51.488;7.232;2023-05-10T09:47:45;16.92;;;15.02;;
33491;SDS011;20010;51.488;7.232;2023-05-10T09:50:12;20.60;;;16.10;;
33491;SDS011;20010;51.488;7.232;2023-05-10T09:52:51;18.45;;;15.50;;
33491;SDS011;20010;51.488;7.232;2023-05-10T09:55:20;17.63;;;15.57;;
33491;SDS011;20010;51.488;7.232;2023-05-10T09:57:49;19.27;;;15.50;;
33491;SDS011;20010;51.488;7.232;2023-05-10T10:00:25;17.13;;;14.25;;
33491;SDS011;20010;51.488;7.232;2023-05-10T10:02:59;17.70;;;14.52;;
33491;SDS011;20010;51.488;7.232;2023-05-10T10:05:30;20.55;;;16.27;;
33491;SDS011;20010;51.488;7.232;2023-05-10T10:10:24;16.98;;;14.38;;
33491;SDS011;20010;51.488;7.232;2023-05-10T10:12:54;19.65;;;14.68;;
33491;SDS011;20010;51.488;7.232;2023-05-10T10:15:21;18.50;;;14.90;;
33491;SDS011;20010;51.488;7.232;2023-05-10T10:17:49;22.13;;;15.60;;
33491;SDS011;20010;51.488;7.232;2023-05-10T10:20:18;23.42;;;16.60;;
33491;SDS011;20010;51.488;7.232;2023-05-10T10:22:56;24.25;;;18.88;;
33491;SDS011;20010;51.488;7.232;2023-05-10T10:25:23;24.60;;;19.08;;
33491;SDS011;20010;51.488;7.232;2023-05-10T10:50:05;20.13;;;16.13;;
33491;SDS011;20010;51.488;7.232;2023-05-10T10:52:34;19.60;;;16.55;;
33491;SDS011;20010;51.488;7.232;2023-05-10T10:57:49;18.00;;;15.50;;
33491;SDS011;20010;51.488;7.232;2023-05-10T11:02:48;18.77;;;16.75;;
33491;SDS011;20010;51.488;7.232;2023-05-10T11:10:37;22.20;;;20.08;;
33491;SDS011;20010;51.488;7.232;2023-05-10T11:13:05;20.52;;;18.38;;
33491;SDS011;20010;51.488;7.232;2023-05-10T11:15:37;18.90;;;16.90;;
33491;SDS011;20010;51.488;7.232;2023-05-10T11:18:20;21.17;;;18.90;;
33491;SDS011;20010;51.488;7.232;2023-05-10T11:20:59;21.15;;;18.88;;
33491;SDS011;20010;51.488;7.232;2023-05-10T11:23:29;18.08;;;16.05;;
33491;SDS011;20010;51.488;7.232;2023-05-10T11:26:14;21.27;;;17.67;;
33491;SDS011;20010;51.488;7.232;2023-05-10T11:28:41;20.02;;;17.58;;
33491;SDS011;20010;51.488;7.232;2023-05-10T11:31:14;20.05;;;17.15;;
33491;SDS011;20010;51.488;7.232;2023-05-10T11:33:52;18.13;;;15.98;;
33491;SDS011;20010;51.488;7.232;2023-05-10T11:36:20;21.42;;;16.95;;
33491;SDS011;20010;51.488;7.232;2023-05-10T11:38:49;20.23;;;16.35;;
33491;SDS011;20010;51.488;7.232;2023-05-10T11:41:17;19.38;;;15.77;;
33491;SDS011;20010;51.488;7.232;2023-05-10T11:43:52;16.55;;;13.85;;
33491;SDS011;20010;51.488;7.232;2023-05-10T11:46:20;18.65;;;15.40;;
33491;SDS011;20010;51.488;7.232;2023-05-10T11:48:53;17.35;;;15.50;;
33491;SDS011;20010;51.488;7.232;2023-05-10T11:51:22;17.55;;;15.80;;
33491;SDS011;20010;51.488;7.232;2023-05-10T11:53:50;15.73;;;14.15;;
33491;SDS011;20010;51.488;7.232;2023-05-10T11:56:20;14.35;;;12.90;;
33491;SDS011;20010;51.488;7.232;2023-05-10T11:58:52;13.10;;;11.82;;
33491;SDS011;20010;51.488;7.232;2023-05-10T12:01:20;14.70;;;13.18;;
33491;SDS011;20010;51.488;7.232;2023-05-10T12:03:47;12.32;;;11.13;;
33491;SDS011;20010;51.488;7.232;2023-05-10T12:06:14;14.30;;;12.77;;
33491;SDS011;20010;51.488;7.232;2023-05-10T12:08:46;16.33;;;13.13;;
33491;SDS011;20010;51.488;7.232;2023-05-10T12:11:13;14.48;;;12.98;;
33491;SDS011;20010;51.488;7.232;2023-05-10T12:13:42;15.45;;;13.80;;
33491;SDS011;20010;51.488;7.232;2023-05-10T12:16:16;14.23;;;12.82;;
33491;SDS011;20010;51.488;7.232;2023-05-10T12:18:43;16.20;;;13.32;;
33491;SDS011;20010;51.488;7.232;2023-05-10T12:21:11;14.98;;;13.50;;
33491;SDS011;20010;51.488;7.232;2023-05-10T12:23:45;18.95;;;13.75;;
33491;SDS011;20010;51.488;7.232;2023-05-10T12:26:13;15.55;;;13.93;;
33491;SDS011;20010;51.488;7.232;2023-05-10T12:28:39;16.17;;;14.48;;
33491;SDS011;20010;51.488;7.232;2023-05-10T12:31:06;16.52;;;14.68;;
33491;SDS011;20010;51.488;7.232;2023-05-10T12:33:40;18.08;;;14.48;;
33491;SDS011;20010;51.488;7.232;2023-05-10T12:36:12;17.75;;;15.40;;
33491;SDS011;20010;51.488;7.232;2023-05-10T12:38:43;17.63;;;14.80;;
33491;SDS011;20010;51.488;7.232;2023-05-10T12:41:15;23.50;;;14.85;;
33491;SDS011;20010;51.488;7.232;2023-05-10T12:43:43;16.52;;;14.80;;
33491;SDS011;20010;51.488;7.232;2023-05-10T12:46:12;18.35;;;14.95;;
33491;SDS011;20010;51.488;7.232;2023-05-10T12:48:42;16.20;;;14.52;;
33491;SDS011;20010;51.488;7.232;2023-05-10T12:51:09;17.15;;;15.55;;
33491;SDS011;20010;51.488;7.232;2023-05-10T12:53:41;15.30;;;13.82;;
33491;SDS011;20010;51.488;7.232;2023-05-10T12:56:11;17.60;;;14.05;;
33491;SDS011;20010;51.488;7.232;2023-05-10T12:58:38;17.42;;;15.65;;
33491;SDS011;20010;51.488;7.232;2023-05-10T13:01:04;15.10;;;13.50;;
33491;SDS011;20010;51.488;7.232;2023-05-10T13:03:31;15.70;;;14.00;;
33491;SDS011;20010;51.488;7.232;2023-05-10T13:05:58;16.23;;;13.90;;
33491;SDS011;20010;51.488;7.232;2023-05-10T13:08:25;15.85;;;14.07;;
33491;SDS011;20010;51.488;7.232;2023-05-10T13:10:51;14.57;;;12.43;;
33491;SDS011;20010;51.488;7.232;2023-05-10T13:13:18;14.30;;;13.00;;
33491;SDS011;20010;51.488;7.232;2023-05-10T13:15:45;14.30;;;12.82;;
33491;SDS011;20010;51.488;7.232;2023-05-10T13:18:11;15.40;;;13.93;;
33491;SDS011;20010;51.488;7.232;2023-05-10T13:20:38;15.32;;;13.77;;
33491;SDS011;20010;51.488;7.232;2023-05-10T13:23:05;14.85;;;13.43;;
33491;SDS011;20010;51.488;7.232;2023-05-10T13:25:31;12.48;;;11.32;;
33491;SDS011;20010;51.488;7.232;2023-05-10T13:27:58;12.13;;;10.93;;
33491;SDS011;20010;51.488;7.232;2023-05-10T13:30:24;11.23;;;10.27;;
33491;SDS011;20010;51.488;7.232;2023-05-10T13:32:51;10.55;;;9.70;;
33491;SDS011;20010;51.488;7.232;2023-05-10T13:35:17;10.80;;;9.65;;
33491;SDS011;20010;51.488;7.232;2023-05-10T13:37:44;9.75;;;8.85;;
33491;SDS011;20010;51.488;7.232;2023-05-10T13:40:11;10.38;;;9.38;;
33491;SDS011;20010;51.488;7.232;2023-05-10T13:42:37;8.85;;;8.15;;
33491;SDS011;20010;51.488;7.232;2023-05-10T13:45:04;11.40;;;10.60;;
33491;SDS011;20010;51.488;7.232;2023-05-10T13:47:31;8.82;;;8.10;;
33491;SDS011;20010;51.488;7.232;2023-05-10T13:49:58;9.52;;;8.75;;
33491;SDS011;20010;51.488;7.232;2023-05-10T13:52:25;9.85;;;9.05;;
33491;SDS011;20010;51.488;7.232;2023-05-10T13:54:54;10.17;;;9.07;;
33491;SDS011;20010;51.488;7.232;2023-05-10T13:57:21;8.43;;;7.82;;
33491;SDS011;20010;51.488;7.232;2023-05-10T13:59:49;8.88;;;8.05;;
33491;SDS011;20010;51.488;7.232;2023-05-10T14:02:16;7.93;;;7.28;;
33491;SDS011;20010;51.488;7.232;2023-05-10T14:04:42;8.10;;;7.55;;
33491;SDS011;20010;51.488;7.232;2023-05-10T14:07:09;8.00;;;7.32;;
33491;SDS011;20010;51.488;7.232;2023-05-10T14:09:36;8.38;;;7.68;;
33491;SDS011;20010;51.488;7.232;2023-05-10T14:12:02;8.93;;;8.02;;
33491;SDS011;20010;51.488;7.232;2023-05-10T14:14:29;8.32;;;7.53;;
33491;SDS011;20010;51.488;7.232;2023-05-10T14:16:56;7.68;;;6.97;;
33491;SDS011;20010;51.488;7.232;2023-05-10T14:19:23;8.02;;;7.35;;
33491;SDS011;20010;51.488;7.232;2023-05-10T14:21:49;9.23;;;8.48;;
33491;SDS011;20010;51.488;7.232;2023-05-10T14:24:18;9.18;;;8.38;;
33491;SDS011;20010;51.488;7.232;2023-05-10T14:26:44;7.10;;;6.60;;
33491;SDS011;20010;51.488;7.232;2023-05-10T14:29:11;6.40;;;6.00;;
33491;SDS011;20010;51.488;7.232;2023-05-10T14:31:38;8.05;;;7.30;;
33491;SDS011;20010;51.488;7.232;2023-05-10T14:34:04;7.38;;;6.78;;
33491;SDS011;20010;51.488;7.232;2023-05-10T14:36:32;7.63;;;6.80;;
33491;SDS011;20010;51.488;7.232;2023-05-10T14:38:58;7.40;;;6.80;;
33491;SDS011;20010;51.488;7.232;2023-05-10T14:41:25;7.93;;;7.30;;
33491;SDS011;20010;51.488;7.232;2023-05-10T14:43:53;7.82;;;7.18;;
33491;SDS011;20010;51.488;7.232;2023-05-10T14:46:19;8.13;;;7.53;;
33491;SDS011;20010;51.488;7.232;2023-05-10T14:48:47;7.80;;;6.88;;
33491;SDS011;20010;51.488;7.232;2023-05-10T14:51:13;10.05;;;8.98;;
33491;SDS011;20010;51.488;7.232;2023-05-10T14:53:40;7.72;;;7.03;;
33491;SDS011;20010;51.488;7.232;2023-05-10T14:56:06;8.10;;;7.50;;
33491;SDS011;20010;51.488;7.232;2023-05-10T14:58:33;8.40;;;7.72;;
33491;SDS011;20010;51.488;7.232;2023-05-10T15:01:00;8.23;;;7.43;;
33491;SDS011;20010;51.488;7.232;2023-05-10T15:03:27;8.23;;;7.50;;
33491;SDS011;20010;51.488;7.232;2023-05-10T15:05:55;7.65;;;6.90;;
33491;SDS011;20010;51.488;7.232;2023-05-10T15:08:23;7.45;;;6.78;;
33491;SDS011;20010;51.488;7.232;2023-05-10T15:10:51;7.57;;;7.00;;
33491;SDS011;20010;51.488;7.232;2023-05-10T15:13:17;7.15;;;6.65;;
33491;SDS011;20010;51.488;7.232;2023-05-10T15:15:44;6.85;;;6.32;;
33491;SDS011;20010;51.488;7.232;2023-05-10T15:18:11;7.95;;;7.35;;
33491;SDS011;20010;51.488;7.232;2023-05-10T15:20:38;6.82;;;6.22;;
33491;SDS011;20010;51.488;7.232;2023-05-10T15:23:04;8.65;;;7.80;;
33491;SDS011;20010;51.488;7.232;2023-05-10T15:25:31;7.18;;;6.72;;
33491;SDS011;20010;51.488;7.232;2023-05-10T15:28:01;6.80;;;6.25;;
33491;SDS011;20010;51.488;7.232;2023-05-10T15:30:28;7.30;;;6.70;;
33491;SDS011;20010;51.488;7.232;2023-05-10T15:32:55;7.70;;;7.05;;